sensor_id;sensor_type;location;lat;lon;timestamp;P1;durP1;ratioP1;P2;durP2;ratioP2
12385;SDS011;6257;57.634;18.310;2022-08-21T00:00:29;6.30;;;2.60;;
12385;SDS011;6257;57.634;18.310;2022-08-21T00:02:57;6.00;;;2.60;;
12385;SDS011;6257;57.634;18.310;2022-08-21T00:05:27;6.97;;;2.93;;
12385;SDS011;6257;57.634;18.310;2022-08-21T00:07:56;6.60;;;2.80;;
12385;SDS011;6257;57.634;18.310;2022-08-21T00:10:24;7.07;;;2.43;;
12385;SDS011;6257;57.634;18.310;2022-08-21T00:12:51;8.33;;;3.10;;
12385;SDS011;6257;57.634;18.310;2022-08-21T00:15:21;7.40;;;3.07;;
12385;SDS011;6257;57.634;18.310;2022-08-21T00:17:51;6.50;;;2.37;;
12385;SDS011;6257;57.634;18.310;2022-08-21T00:20:18;6.20;;;2.53;;
12385;SDS011;6257;57.634;18.310;2022-08-21T00:22:45;8.10;;;3.07;;
12385;SDS011;6257;57.634;18.310;2022-08-21T00:25:14;7.17;;;2.87;;
12385;SDS011;6257;57.634;18.310;2022-08-21T00:27:42;7.27;;;2.60;;
12385;SDS011;6257;57.634;18.310;2022-08-21T00:30:10;7.07;;;2.70;;
12385;SDS011;6257;57.634;18.310;2022-08-21T00:32:39;5.13;;;2.20;;
12385;SDS011;6257;57.634;18.310;2022-08-21T00:35:08;10.70;;;2.73;;
12385;SDS011;6257;57.634;18.310;2022-08-21T00:37:38;8.37;;;3.13;;
12385;SDS011;6257;57.634;18.310;2022-08-21T00:40:07;9.20;;;2.60;;
12385;SDS011;6257;57.634;18.310;2022-08-21T00:42:41;4.77;;;2.40;;
12385;SDS011;6257;57.634;18.310;2022-08-21T00:45:10;4.37;;;2.20;;
12385;SDS011;6257;57.634;18.310;2022-08-21T00:47:37;5.57;;;2.50;;
12385;SDS011;6257;57.634;18.310;2022-08-21T00:50:06;6.03;;;2.10;;
12385;SDS011;6257;57.634;18.310;2022-08-21T00:52:36;7.00;;;3.03;;
12385;SDS011;6257;57.634;18.310;2022-08-21T00:55:05;5.80;;;2.23;;
12385;SDS011;6257;57.634;18.310;2022-08-21T00:57:36;4.27;;;2.10;;
12385;SDS011;6257;57.634;18.310;2022-08-21T01:00:11;6.07;;;2.10;;
12385;SDS011;6257;57.634;18.310;2022-08-21T01:02:41;6.93;;;2.27;;
12385;SDS011;6257;57.634;18.310;2022-08-21T01:05:09;7.20;;;2.27;;
12385;SDS011;6257;57.634;18.310;2022-08-21T01:07:36;6.80;;;2.13;;
12385;SDS011;6257;57.634;18.310;2022-08-21T01:10:05;9.00;;;2.10;;
12385;SDS011;6257;57.634;18.310;2022-08-21T01:12:34;6.23;;;2.10;;
12385;SDS011;6257;57.634;18.310;2022-08-21T01:15:03;7.77;;;2.00;;
12385;SDS011;6257;57.634;18.310;2022-08-21T01:17:32;5.27;;;2.07;;
12385;SDS011;6257;57.634;18.310;2022-08-21T01:20:00;8.57;;;2.50;;
12385;SDS011;6257;57.634;18.310;2022-08-21T01:22:32;8.17;;;2.40;;
12385;SDS011;6257;57.634;18.310;2022-08-21T01:25:00;4.40;;;1.97;;
12385;SDS011;6257;57.634;18.310;2022-08-21T01:27:27;7.47;;;2.00;;
12385;SDS011;6257;57.634;18.310;2022-08-21T01:29:55;7.03;;;2.07;;
12385;SDS011;6257;57.634;18.310;2022-08-21T01:32:25;6.33;;;1.80;;
12385;SDS011;6257;57.634;18.310;2022-08-21T01:34:52;5.43;;;2.07;;
12385;SDS011;6257;57.634;18.310;2022-08-21T01:37:20;5.37;;;2.00;;
12385;SDS011;6257;57.634;18.310;2022-08-21T01:39:49;6.80;;;2.40;;
12385;SDS011;6257;57.634;18.310;2022-08-21T01:42:16;6.83;;;2.10;;
12385;SDS011;6257;57.634;18.310;2022-08-21T01:44:44;5.63;;;2.50;;
12385;SDS011;6257;57.634;18.310;2022-08-21T01:47:11;7.67;;;2.20;;
12385;SDS011;6257;57.634;18.310;2022-08-21T01:49:40;5.67;;;2.00;;
12385;SDS011;6257;57.634;18.310;2022-08-21T01:52:09;5.97;;;1.77;;
12385;SDS011;6257;57.634;18.310;2022-08-21T01:54:37;4.93;;;2.00;;
12385;SDS011;6257;57.634;18.310;2022-08-21T01:57:07;7.27;;;2.87;;
12385;SDS011;6257;57.634;18.310;2022-08-21T01:59:36;6.00;;;2.03;;
12385;SDS011;6257;57.634;18.310;2022-08-21T02:02:03;8.17;;;2.47;;
12385;SDS011;6257;57.634;18.310;2022-08-21T02:04:31;5.33;;;2.23;;
12385;SDS011;6257;57.634;18.310;2022-08-21T02:06:58;3.20;;;1.93;;
12385;SDS011;6257;57.634;18.310;2022-08-21T02:09:26;4.13;;;1.83;;
12385;SDS011;6257;57.634;18.310;2022-08-21T02:11:53;5.70;;;1.73;;
12385;SDS011;6257;57.634;18.310;2022-08-21T02:14:22;5.17;;;1.87;;
12385;SDS011;6257;57.634;18.310;2022-08-21T02:16:49;3.10;;;1.43;;
12385;SDS011;6257;57.634;18.310;2022-08-21T02:19:16;4.80;;;1.77;;
12385;SDS011;6257;57.634;18.310;2022-08-21T02:21:43;6.60;;;1.93;;
12385;SDS011;6257;57.634;18.310;2022-08-21T02:24:11;7.23;;;2.37;;
12385;SDS011;6257;57.634;18.310;2022-08-21T02:26:38;8.27;;;2.37;;
12385;SDS011;6257;57.634;18.310;2022-08-21T02:29:06;8.33;;;2.30;;
12385;SDS011;6257;57.634;18.310;2022-08-21T02:31:34;7.93;;;2.37;;
12385;SDS011;6257;57.634;18.310;2022-08-21T02:34:02;5.87;;;2.07;;
12385;SDS011;6257;57.634;18.310;2022-08-21T02:36:29;7.03;;;2.07;;
12385;SDS011;6257;57.634;18.310;2022-08-21T02:38:57;7.43;;;2.30;;
12385;SDS011;6257;57.634;18.310;2022-08-21T02:41:24;6.40;;;2.13;;
12385;SDS011;6257;57.634;18.310;2022-08-21T02:43:51;4.40;;;2.40;;
12385;SDS011;6257;57.634;18.310;2022-08-21T02:46:19;10.93;;;2.87;;
12385;SDS011;6257;57.634;18.310;2022-08-21T02:48:48;8.93;;;2.77;;
12385;SDS011;6257;57.634;18.310;2022-08-21T02:51:17;7.87;;;2.50;;
12385;SDS011;6257;57.634;18.310;2022-08-21T02:53:47;7.63;;;2.70;;
12385;SDS011;6257;57.634;18.310;2022-08-21T02:56:16;8.20;;;2.60;;
12385;SDS011;6257;57.634;18.310;2022-08-21T02:58:46;10.00;;;2.90;;
12385;SDS011;6257;57.634;18.310;2022-08-21T03:01:16;7.80;;;2.77;;
12385;SDS011;6257;57.634;18.310;2022-08-21T03:03:44;6.93;;;2.80;;
12385;SDS011;6257;57.634;18.310;2022-08-21T03:06:16;8.67;;;3.00;;
12385;SDS011;6257;57.634;18.310;2022-08-21T03:08:45;5.93;;;2.27;;
12385;SDS011;6257;57.634;18.310;2022-08-21T03:11:13;7.37;;;2.67;;
12385;SDS011;6257;57.634;18.310;2022-08-21T03:13:40;8.07;;;2.53;;
12385;SDS011;6257;57.634;18.310;2022-08-21T03:16:08;9.27;;;2.73;;
12385;SDS011;6257;57.634;18.310;2022-08-21T03:18:35;7.83;;;2.67;;
12385;SDS011;6257;57.634;18.310;2022-08-21T03:21:02;8.27;;;2.47;;
12385;SDS011;6257;57.634;18.310;2022-08-21T03:23:31;9.47;;;3.33;;
12385;SDS011;6257;57.634;18.310;2022-08-21T03:25:59;6.70;;;2.83;;
12385;SDS011;6257;57.634;18.310;2022-08-21T03:28:26;5.17;;;2.90;;
12385;SDS011;6257;57.634;18.310;2022-08-21T03:30:54;8.67;;;3.40;;
12385;SDS011;6257;57.634;18.310;2022-08-21T03:33:21;8.53;;;3.00;;
12385;SDS011;6257;57.634;18.310;2022-08-21T03:35:52;6.93;;;3.07;;
12385;SDS011;6257;57.634;18.310;2022-08-21T03:38:26;8.17;;;3.33;;
12385;SDS011;6257;57.634;18.310;2022-08-21T03:40:55;8.97;;;3.23;;
12385;SDS011;6257;57.634;18.310;2022-08-21T03:43:22;9.27;;;3.27;;
12385;SDS011;6257;57.634;18.310;2022-08-21T03:45:49;6.63;;;3.07;;
12385;SDS011;6257;57.634;18.310;2022-08-21T03:48:16;9.37;;;2.80;;
12385;SDS011;6257;57.634;18.310;2022-08-21T03:50:44;5.77;;;2.57;;
12385;SDS011;6257;57.634;18.310;2022-08-21T03:53:13;6.43;;;2.67;;
12385;SDS011;6257;57.634;18.310;2022-08-21T03:55:41;6.60;;;2.53;;
12385;SDS011;6257;57.634;18.310;2022-08-21T03:58:10;5.90;;;2.13;;
12385;SDS011;6257;57.634;18.310;2022-08-21T04:00:37;7.83;;;2.20;;
12385;SDS011;6257;57.634;18.310;2022-08-21T04:03:04;5.70;;;2.43;;
12385;SDS011;6257;57.634;18.310;2022-08-21T04:05:32;8.67;;;2.60;;
12385;SDS011;6257;57.634;18.310;2022-08-21T04:08:00;10.73;;;2.60;;
12385;SDS011;6257;57.634;18.310;2022-08-21T04:10:30;6.17;;;2.47;;
12385;SDS011;6257;57.634;18.310;2022-08-21T04:12:58;5.70;;;2.23;;
12385;SDS011;6257;57.634;18.310;2022-08-21T04:15:26;6.57;;;2.40;;
12385;SDS011;6257;57.634;18.310;2022-08-21T04:17:54;8.23;;;2.73;;
12385;SDS011;6257;57.634;18.310;2022-08-21T04:20:21;6.50;;;2.67;;
12385;SDS011;6257;57.634;18.310;2022-08-21T04:22:50;7.40;;;3.03;;
12385;SDS011;6257;57.634;18.310;2022-08-21T04:25:18;8.73;;;2.60;;
12385;SDS011;6257;57.634;18.310;2022-08-21T04:27:46;7.20;;;2.50;;
12385;SDS011;6257;57.634;18.310;2022-08-21T04:30:13;8.33;;;3.07;;
12385;SDS011;6257;57.634;18.310;2022-08-21T04:32:43;11.73;;;3.17;;
12385;SDS011;6257;57.634;18.310;2022-08-21T04:35:11;6.30;;;2.90;;
12385;SDS011;6257;57.634;18.310;2022-08-21T04:37:39;9.33;;;2.97;;
12385;SDS011;6257;57.634;18.310;2022-08-21T04:40:07;6.03;;;2.47;;
12385;SDS011;6257;57.634;18.310;2022-08-21T04:42:40;6.37;;;2.40;;
12385;SDS011;6257;57.634;18.310;2022-08-21T04:45:15;5.37;;;2.33;;
12385;SDS011;6257;57.634;18.310;2022-08-21T04:47:46;8.40;;;2.60;;
12385;SDS011;6257;57.634;18.310;2022-08-21T04:50:15;7.97;;;2.57;;
12385;SDS011;6257;57.634;18.310;2022-08-21T04:52:42;5.10;;;2.53;;
12385;SDS011;6257;57.634;18.310;2022-08-21T04:55:10;6.80;;;2.30;;
12385;SDS011;6257;57.634;18.310;2022-08-21T04:57:37;4.83;;;2.07;;
12385;SDS011;6257;57.634;18.310;2022-08-21T05:00:06;7.30;;;2.00;;
12385;SDS011;6257;57.634;18.310;2022-08-21T05:02:35;5.83;;;2.30;;
12385;SDS011;6257;57.634;18.310;2022-08-21T05:05:07;4.27;;;1.80;;
12385;SDS011;6257;57.634;18.310;2022-08-21T05:07:35;6.80;;;2.17;;
12385;SDS011;6257;57.634;18.310;2022-08-21T05:10:03;5.13;;;1.77;;
12385;SDS011;6257;57.634;18.310;2022-08-21T05:12:32;6.77;;;1.97;;
12385;SDS011;6257;57.634;18.310;2022-08-21T05:15:00;7.03;;;2.40;;
12385;SDS011;6257;57.634;18.310;2022-08-21T05:17:28;6.37;;;2.20;;
12385;SDS011;6257;57.634;18.310;2022-08-21T05:19:55;6.23;;;2.17;;
12385;SDS011;6257;57.634;18.310;2022-08-21T05:22:24;8.10;;;2.00;;
12385;SDS011;6257;57.634;18.310;2022-08-21T05:24:51;6.17;;;1.87;;
12385;SDS011;6257;57.634;18.310;2022-08-21T05:27:18;6.83;;;1.73;;
12385;SDS011;6257;57.634;18.310;2022-08-21T05:29:45;7.63;;;2.13;;
12385;SDS011;6257;57.634;18.310;2022-08-21T05:32:13;6.63;;;2.20;;
12385;SDS011;6257;57.634;18.310;2022-08-21T05:34:40;7.20;;;1.73;;
12385;SDS011;6257;57.634;18.310;2022-08-21T05:37:09;4.80;;;1.70;;
12385;SDS011;6257;57.634;18.310;2022-08-21T05:39:39;9.37;;;2.03;;
12385;SDS011;6257;57.634;18.310;2022-08-21T05:42:06;6.17;;;2.00;;
12385;SDS011;6257;57.634;18.310;2022-08-21T05:44:34;7.27;;;2.00;;
12385;SDS011;6257;57.634;18.310;2022-08-21T05:47:04;7.10;;;2.00;;
12385;SDS011;6257;57.634;18.310;2022-08-21T05:49:32;6.57;;;1.93;;
12385;SDS011;6257;57.634;18.310;2022-08-21T05:51:59;5.60;;;1.93;;
12385;SDS011;6257;57.634;18.310;2022-08-21T05:54:27;7.43;;;1.90;;
12385;SDS011;6257;57.634;18.310;2022-08-21T05:56:56;3.30;;;1.50;;
12385;SDS011;6257;57.634;18.310;2022-08-21T05:59:23;9.13;;;1.83;;
12385;SDS011;6257;57.634;18.310;2022-08-21T06:01:52;6.13;;;1.50;;
12385;SDS011;6257;57.634;18.310;2022-08-21T06:04:20;6.13;;;1.53;;
12385;SDS011;6257;57.634;18.310;2022-08-21T06:06:47;6.57;;;1.73;;
12385;SDS011;6257;57.634;18.310;2022-08-21T06:09:14;5.63;;;1.60;;
12385;SDS011;6257;57.634;18.310;2022-08-21T06:11:41;5.97;;;1.37;;
12385;SDS011;6257;57.634;18.310;2022-08-21T06:14:11;7.57;;;1.77;;
12385;SDS011;6257;57.634;18.310;2022-08-21T06:16:40;6.00;;;1.67;;
12385;SDS011;6257;57.634;18.310;2022-08-21T06:19:07;7.10;;;1.50;;
12385;SDS011;6257;57.634;18.310;2022-08-21T06:21:35;6.60;;;2.00;;
12385;SDS011;6257;57.634;18.310;2022-08-21T06:24:02;8.97;;;1.97;;
12385;SDS011;6257;57.634;18.310;2022-08-21T06:26:31;6.87;;;1.90;;
12385;SDS011;6257;57.634;18.310;2022-08-21T06:28:59;6.30;;;1.80;;
12385;SDS011;6257;57.634;18.310;2022-08-21T06:31:28;6.07;;;1.83;;
12385;SDS011;6257;57.634;18.310;2022-08-21T06:33:55;7.33;;;1.70;;
12385;SDS011;6257;57.634;18.310;2022-08-21T06:36:22;8.63;;;2.17;;
12385;SDS011;6257;57.634;18.310;2022-08-21T06:38:49;6.53;;;1.57;;
12385;SDS011;6257;57.634;18.310;2022-08-21T06:41:16;7.97;;;1.97;;
12385;SDS011;6257;57.634;18.310;2022-08-21T06:43:44;5.20;;;1.77;;
12385;SDS011;6257;57.634;18.310;2022-08-21T06:46:11;6.63;;;2.10;;
12385;SDS011;6257;57.634;18.310;2022-08-21T06:48:40;7.67;;;1.77;;
12385;SDS011;6257;57.634;18.310;2022-08-21T06:51:07;7.30;;;2.07;;
12385;SDS011;6257;57.634;18.310;2022-08-21T06:53:34;6.70;;;1.80;;
12385;SDS011;6257;57.634;18.310;2022-08-21T06:56:01;8.17;;;1.97;;
12385;SDS011;6257;57.634;18.310;2022-08-21T06:58:29;9.60;;;2.10;;
12385;SDS011;6257;57.634;18.310;2022-08-21T07:00:56;9.03;;;1.90;;
12385;SDS011;6257;57.634;18.310;2022-08-21T07:03:25;10.10;;;2.17;;
12385;SDS011;6257;57.634;18.310;2022-08-21T07:05:56;5.90;;;1.60;;
12385;SDS011;6257;57.634;18.310;2022-08-21T07:08:24;5.70;;;1.83;;
12385;SDS011;6257;57.634;18.310;2022-08-21T07:10:51;6.83;;;2.07;;
12385;SDS011;6257;57.634;18.310;2022-08-21T07:13:19;7.80;;;2.07;;
12385;SDS011;6257;57.634;18.310;2022-08-21T07:15:47;8.07;;;1.87;;
12385;SDS011;6257;57.634;18.310;2022-08-21T07:18:14;8.50;;;2.07;;
12385;SDS011;6257;57.634;18.310;2022-08-21T07:20:41;8.90;;;2.00;;
12385;SDS011;6257;57.634;18.310;2022-08-21T07:23:11;6.53;;;2.03;;
12385;SDS011;6257;57.634;18.310;2022-08-21T07:25:48;8.03;;;1.77;;
12385;SDS011;6257;57.634;18.310;2022-08-21T07:28:16;5.50;;;1.80;;
12385;SDS011;6257;57.634;18.310;2022-08-21T07:30:43;10.80;;;2.10;;
12385;SDS011;6257;57.634;18.310;2022-08-21T07:33:11;9.60;;;2.40;;
12385;SDS011;6257;57.634;18.310;2022-08-21T07:35:38;5.50;;;1.80;;
12385;SDS011;6257;57.634;18.310;2022-08-21T07:38:05;6.33;;;1.60;;
12385;SDS011;6257;57.634;18.310;2022-08-21T07:40:34;8.03;;;2.30;;
12385;SDS011;6257;57.634;18.310;2022-08-21T07:43:01;8.40;;;1.70;;
12385;SDS011;6257;57.634;18.310;2022-08-21T07:45:28;7.63;;;1.97;;
12385;SDS011;6257;57.634;18.310;2022-08-21T07:47:55;7.10;;;2.20;;
12385;SDS011;6257;57.634;18.310;2022-08-21T07:50:22;8.43;;;2.03;;
12385;SDS011;6257;57.634;18.310;2022-08-21T07:52:50;8.27;;;1.93;;
12385;SDS011;6257;57.634;18.310;2022-08-21T07:55:18;6.13;;;1.73;;
12385;SDS011;6257;57.634;18.310;2022-08-21T07:57:48;5.87;;;1.83;;
12385;SDS011;6257;57.634;18.310;2022-08-21T08:00:17;9.83;;;1.93;;
12385;SDS011;6257;57.634;18.310;2022-08-21T08:02:46;8.73;;;2.20;;
12385;SDS011;6257;57.634;18.310;2022-08-21T08:05:17;6.73;;;1.90;;
12385;SDS011;6257;57.634;18.310;2022-08-21T08:07:46;5.83;;;1.87;;
12385;SDS011;6257;57.634;18.310;2022-08-21T08:10:14;7.53;;;2.00;;
12385;SDS011;6257;57.634;18.310;2022-08-21T08:12:42;6.40;;;1.90;;
12385;SDS011;6257;57.634;18.310;2022-08-21T08:15:11;4.87;;;1.80;;
12385;SDS011;6257;57.634;18.310;2022-08-21T08:17:40;7.03;;;1.90;;
12385;SDS011;6257;57.634;18.310;2022-08-21T08:20:08;9.23;;;2.27;;
12385;SDS011;6257;57.634;18.310;2022-08-21T08:22:37;5.00;;;1.70;;
12385;SDS011;6257;57.634;18.310;2022-08-21T08:25:06;5.40;;;1.77;;
12385;SDS011;6257;57.634;18.310;2022-08-21T08:27:36;9.77;;;2.43;;
12385;SDS011;6257;57.634;18.310;2022-08-21T08:30:04;8.03;;;1.90;;
12385;SDS011;6257;57.634;18.310;2022-08-21T08:32:35;10.07;;;1.97;;
12385;SDS011;6257;57.634;18.310;2022-08-21T08:35:02;8.57;;;2.30;;
12385;SDS011;6257;57.634;18.310;2022-08-21T08:37:30;7.97;;;1.90;;
12385;SDS011;6257;57.634;18.310;2022-08-21T08:39:58;10.73;;;2.00;;
12385;SDS011;6257;57.634;18.310;2022-08-21T08:42:27;6.97;;;2.43;;
12385;SDS011;6257;57.634;18.310;2022-08-21T08:44:57;4.77;;;1.87;;
12385;SDS011;6257;57.634;18.310;2022-08-21T08:47:26;8.40;;;2.30;;
12385;SDS011;6257;57.634;18.310;2022-08-21T08:49:58;4.80;;;1.83;;
12385;SDS011;6257;57.634;18.310;2022-08-21T08:52:31;7.47;;;1.90;;
12385;SDS011;6257;57.634;18.310;2022-08-21T08:55:02;5.97;;;2.10;;
12385;SDS011;6257;57.634;18.310;2022-08-21T08:57:32;7.37;;;2.30;;
12385;SDS011;6257;57.634;18.310;2022-08-21T09:00:03;5.73;;;1.70;;
12385;SDS011;6257;57.634;18.310;2022-08-21T09:02:33;7.17;;;2.00;;
12385;SDS011;6257;57.634;18.310;2022-08-21T09:05:02;5.53;;;1.90;;
12385;SDS011;6257;57.634;18.310;2022-08-21T09:07:33;4.53;;;1.90;;
12385;SDS011;6257;57.634;18.310;2022-08-21T09:10:11;9.33;;;2.40;;
12385;SDS011;6257;57.634;18.310;2022-08-21T09:12:44;9.87;;;2.37;;
12385;SDS011;6257;57.634;18.310;2022-08-21T09:15:20;5.77;;;1.60;;
12385;SDS011;6257;57.634;18.310;2022-08-21T09:18:03;6.03;;;2.00;;
12385;SDS011;6257;57.634;18.310;2022-08-21T09:20:44;5.60;;;1.70;;
12385;SDS011;6257;57.634;18.310;2022-08-21T09:23:22;8.20;;;1.83;;
12385;SDS011;6257;57.634;18.310;2022-08-21T09:25:59;6.47;;;1.60;;
12385;SDS011;6257;57.634;18.310;2022-08-21T09:28:32;5.90;;;1.90;;
12385;SDS011;6257;57.634;18.310;2022-08-21T09:31:00;5.50;;;2.00;;
12385;SDS011;6257;57.634;18.310;2022-08-21T09:33:29;4.43;;;1.70;;
12385;SDS011;6257;57.634;18.310;2022-08-21T09:35:58;6.73;;;2.00;;
12385;SDS011;6257;57.634;18.310;2022-08-21T09:38:27;8.43;;;2.07;;
12385;SDS011;6257;57.634;18.310;2022-08-21T09:40:57;8.57;;;2.20;;
12385;SDS011;6257;57.634;18.310;2022-08-21T09:43:27;4.90;;;1.77;;
12385;SDS011;6257;57.634;18.310;2022-08-21T09:46:02;6.83;;;1.83;;
12385;SDS011;6257;57.634;18.310;2022-08-21T09:48:39;6.70;;;1.80;;
12385;SDS011;6257;57.634;18.310;2022-08-21T09:51:11;5.77;;;2.30;;
12385;SDS011;6257;57.634;18.310;2022-08-21T09:53:42;7.00;;;1.80;;
12385;SDS011;6257;57.634;18.310;2022-08-21T09:56:26;6.10;;;2.10;;
12385;SDS011;6257;57.634;18.310;2022-08-21T09:59:14;5.40;;;1.87;;
12385;SDS011;6257;57.634;18.310;2022-08-21T10:01:43;6.77;;;1.83;;
12385;SDS011;6257;57.634;18.310;2022-08-21T10:04:12;6.87;;;2.10;;
12385;SDS011;6257;57.634;18.310;2022-08-21T10:06:41;6.37;;;2.10;;
12385;SDS011;6257;57.634;18.310;2022-08-21T10:09:09;6.97;;;1.90;;
12385;SDS011;6257;57.634;18.310;2022-08-21T10:11:38;7.53;;;2.40;;
12385;SDS011;6257;57.634;18.310;2022-08-21T10:14:10;6.23;;;1.83;;
12385;SDS011;6257;57.634;18.310;2022-08-21T10:16:47;6.70;;;1.83;;
12385;SDS011;6257;57.634;18.310;2022-08-21T10:19:26;5.77;;;1.80;;
12385;SDS011;6257;57.634;18.310;2022-08-21T10:22:06;6.43;;;1.77;;
12385;SDS011;6257;57.634;18.310;2022-08-21T10:24:48;4.10;;;2.03;;
12385;SDS011;6257;57.634;18.310;2022-08-21T10:27:26;5.13;;;1.67;;
12385;SDS011;6257;57.634;18.310;2022-08-21T10:30:02;5.03;;;1.63;;
12385;SDS011;6257;57.634;18.310;2022-08-21T10:32:42;4.27;;;1.60;;
12385;SDS011;6257;57.634;18.310;2022-08-21T10:35:19;6.17;;;1.93;;
12385;SDS011;6257;57.634;18.310;2022-08-21T10:38:00;5.37;;;1.70;;
12385;SDS011;6257;57.634;18.310;2022-08-21T10:40:42;5.23;;;1.97;;
12385;SDS011;6257;57.634;18.310;2022-08-21T10:43:16;7.43;;;2.27;;
12385;SDS011;6257;57.634;18.310;2022-08-21T10:45:52;5.23;;;2.03;;
12385;SDS011;6257;57.634;18.310;2022-08-21T10:48:28;9.20;;;1.97;;
12385;SDS011;6257;57.634;18.310;2022-08-21T10:51:01;7.10;;;1.70;;
12385;SDS011;6257;57.634;18.310;2022-08-21T10:53:39;5.77;;;1.80;;
12385;SDS011;6257;57.634;18.310;2022-08-21T10:56:17;5.23;;;1.73;;
12385;SDS011;6257;57.634;18.310;2022-08-21T10:58:57;5.00;;;2.00;;
12385;SDS011;6257;57.634;18.310;2022-08-21T11:01:32;5.90;;;1.60;;
12385;SDS011;6257;57.634;18.310;2022-08-21T11:04:10;8.53;;;1.70;;
12385;SDS011;6257;57.634;18.310;2022-08-21T11:06:40;5.40;;;2.00;;
12385;SDS011;6257;57.634;18.310;2022-08-21T11:09:14;6.07;;;2.03;;
12385;SDS011;6257;57.634;18.310;2022-08-21T11:11:44;5.47;;;1.70;;
12385;SDS011;6257;57.634;18.310;2022-08-21T11:14:18;5.13;;;1.93;;
12385;SDS011;6257;57.634;18.310;2022-08-21T11:16:53;7.40;;;1.83;;
12385;SDS011;6257;57.634;18.310;2022-08-21T11:19:28;7.90;;;2.00;;
12385;SDS011;6257;57.634;18.310;2022-08-21T11:21:58;7.13;;;1.97;;
12385;SDS011;6257;57.634;18.310;2022-08-21T11:24:37;11.83;;;2.70;;
12385;SDS011;6257;57.634;18.310;2022-08-21T11:27:14;9.03;;;2.50;;
12385;SDS011;6257;57.634;18.310;2022-08-21T11:29:48;6.43;;;2.00;;
12385;SDS011;6257;57.634;18.310;2022-08-21T11:32:23;6.13;;;2.10;;
12385;SDS011;6257;57.634;18.310;2022-08-21T11:35:03;6.63;;;2.13;;
12385;SDS011;6257;57.634;18.310;2022-08-21T11:37:45;5.67;;;1.90;;
12385;SDS011;6257;57.634;18.310;2022-08-21T11:40:24;4.37;;;1.80;;
12385;SDS011;6257;57.634;18.310;2022-08-21T11:43:02;8.37;;;1.83;;
12385;SDS011;6257;57.634;18.310;2022-08-21T11:45:39;5.27;;;1.87;;
12385;SDS011;6257;57.634;18.310;2022-08-21T11:48:13;7.67;;;2.07;;
12385;SDS011;6257;57.634;18.310;2022-08-21T11:50:49;5.63;;;2.03;;
12385;SDS011;6257;57.634;18.310;2022-08-21T11:53:18;7.67;;;2.20;;
12385;SDS011;6257;57.634;18.310;2022-08-21T11:55:53;6.57;;;2.00;;
12385;SDS011;6257;57.634;18.310;2022-08-21T11:58:25;4.87;;;1.80;;
12385;SDS011;6257;57.634;18.310;2022-08-21T12:00:57;4.97;;;2.00;;
12385;SDS011;6257;57.634;18.310;2022-08-21T12:03:28;7.57;;;2.20;;
12385;SDS011;6257;57.634;18.310;2022-08-21T12:06:00;5.80;;;1.77;;
12385;SDS011;6257;57.634;18.310;2022-08-21T12:08:31;4.50;;;1.83;;
12385;SDS011;6257;57.634;18.310;2022-08-21T12:11:02;7.60;;;1.87;;
12385;SDS011;6257;57.634;18.310;2022-08-21T12:13:32;7.77;;;1.73;;
12385;SDS011;6257;57.634;18.310;2022-08-21T12:16:07;6.90;;;2.33;;
12385;SDS011;6257;57.634;18.310;2022-08-21T12:18:37;5.60;;;1.80;;
12385;SDS011;6257;57.634;18.310;2022-08-21T12:21:05;4.90;;;1.67;;
12385;SDS011;6257;57.634;18.310;2022-08-21T12:23:48;4.37;;;1.80;;
12385;SDS011;6257;57.634;18.310;2022-08-21T12:26:30;5.17;;;1.87;;
12385;SDS011;6257;57.634;18.310;2022-08-21T12:29:05;8.97;;;1.80;;
12385;SDS011;6257;57.634;18.310;2022-08-21T12:31:47;6.60;;;1.83;;
12385;SDS011;6257;57.634;18.310;2022-08-21T12:34:20;5.67;;;1.90;;
12385;SDS011;6257;57.634;18.310;2022-08-21T12:36:53;8.93;;;2.00;;
12385;SDS011;6257;57.634;18.310;2022-08-21T12:39:23;6.00;;;1.77;;
12385;SDS011;6257;57.634;18.310;2022-08-21T12:41:55;3.90;;;1.40;;
12385;SDS011;6257;57.634;18.310;2022-08-21T12:44:27;6.57;;;1.90;;
12385;SDS011;6257;57.634;18.310;2022-08-21T12:47:01;6.63;;;1.83;;
12385;SDS011;6257;57.634;18.310;2022-08-21T12:49:31;9.00;;;2.53;;
12385;SDS011;6257;57.634;18.310;2022-08-21T12:52:03;5.40;;;1.77;;
12385;SDS011;6257;57.634;18.310;2022-08-21T12:54:38;6.93;;;2.17;;
12385;SDS011;6257;57.634;18.310;2022-08-21T12:57:08;4.50;;;1.53;;
12385;SDS011;6257;57.634;18.310;2022-08-21T12:59:44;9.77;;;1.83;;
12385;SDS011;6257;57.634;18.310;2022-08-21T13:02:13;5.63;;;1.70;;
12385;SDS011;6257;57.634;18.310;2022-08-21T13:04:43;4.50;;;1.80;;
12385;SDS011;6257;57.634;18.310;2022-08-21T13:07:13;4.73;;;1.83;;
12385;SDS011;6257;57.634;18.310;2022-08-21T13:09:46;6.50;;;2.17;;
12385;SDS011;6257;57.634;18.310;2022-08-21T13:12:17;4.30;;;1.70;;
12385;SDS011;6257;57.634;18.310;2022-08-21T13:14:46;6.90;;;1.80;;
12385;SDS011;6257;57.634;18.310;2022-08-21T13:17:14;6.40;;;2.00;;
12385;SDS011;6257;57.634;18.310;2022-08-21T13:19:52;5.90;;;2.30;;
12385;SDS011;6257;57.634;18.310;2022-08-21T13:22:20;4.73;;;1.90;;
12385;SDS011;6257;57.634;18.310;2022-08-21T13:24:48;6.17;;;1.57;;
12385;SDS011;6257;57.634;18.310;2022-08-21T13:27:20;5.63;;;1.67;;
12385;SDS011;6257;57.634;18.310;2022-08-21T13:29:59;5.63;;;1.70;;
12385;SDS011;6257;57.634;18.310;2022-08-21T13:32:30;5.83;;;2.10;;
12385;SDS011;6257;57.634;18.310;2022-08-21T13:34:59;9.57;;;2.00;;
12385;SDS011;6257;57.634;18.310;2022-08-21T13:37:39;6.13;;;1.90;;
12385;SDS011;6257;57.634;18.310;2022-08-21T13:40:09;5.87;;;1.80;;
12385;SDS011;6257;57.634;18.310;2022-08-21T13:42:40;5.67;;;2.10;;
12385;SDS011;6257;57.634;18.310;2022-08-21T13:45:13;5.73;;;1.73;;
12385;SDS011;6257;57.634;18.310;2022-08-21T13:47:42;4.83;;;1.90;;
12385;SDS011;6257;57.634;18.310;2022-08-21T13:50:11;4.73;;;1.97;;
12385;SDS011;6257;57.634;18.310;2022-08-21T13:52:46;3.63;;;2.00;;
12385;SDS011;6257;57.634;18.310;2022-08-21T13:55:16;6.43;;;1.80;;
12385;SDS011;6257;57.634;18.310;2022-08-21T13:57:45;4.90;;;1.63;;
12385;SDS011;6257;57.634;18.310;2022-08-21T14:00:14;5.50;;;1.77;;
12385;SDS011;6257;57.634;18.310;2022-08-21T14:02:44;4.63;;;2.07;;
12385;SDS011;6257;57.634;18.310;2022-08-21T14:05:14;4.63;;;1.60;;
12385;SDS011;6257;57.634;18.310;2022-08-21T14:07:43;5.33;;;1.77;;
12385;SDS011;6257;57.634;18.310;2022-08-21T14:10:13;4.30;;;1.60;;
12385;SDS011;6257;57.634;18.310;2022-08-21T14:12:43;4.67;;;1.37;;
12385;SDS011;6257;57.634;18.310;2022-08-21T14:15:17;2.97;;;1.20;;
12385;SDS011;6257;57.634;18.310;2022-08-21T14:17:48;4.63;;;1.83;;
12385;SDS011;6257;57.634;18.310;2022-08-21T14:20:25;4.97;;;1.50;;
12385;SDS011;6257;57.634;18.310;2022-08-21T14:22:53;3.37;;;1.60;;
12385;SDS011;6257;57.634;18.310;2022-08-21T14:25:27;6.33;;;2.00;;
12385;SDS011;6257;57.634;18.310;2022-08-21T14:28:10;3.63;;;1.60;;
12385;SDS011;6257;57.634;18.310;2022-08-21T14:30:44;4.43;;;1.23;;
12385;SDS011;6257;57.634;18.310;2022-08-21T14:33:13;5.00;;;1.47;;
12385;SDS011;6257;57.634;18.310;2022-08-21T14:35:44;2.73;;;1.30;;
12385;SDS011;6257;57.634;18.310;2022-08-21T14:38:12;3.70;;;1.30;;
12385;SDS011;6257;57.634;18.310;2022-08-21T14:40:40;4.90;;;1.30;;
12385;SDS011;6257;57.634;18.310;2022-08-21T14:43:10;3.50;;;1.20;;
12385;SDS011;6257;57.634;18.310;2022-08-21T14:45:37;4.07;;;1.30;;
12385;SDS011;6257;57.634;18.310;2022-08-21T14:48:06;2.67;;;1.40;;
12385;SDS011;6257;57.634;18.310;2022-08-21T14:50:33;3.53;;;1.20;;
12385;SDS011;6257;57.634;18.310;2022-08-21T14:53:00;4.27;;;1.40;;
12385;SDS011;6257;57.634;18.310;2022-08-21T14:55:28;4.80;;;1.70;;
12385;SDS011;6257;57.634;18.310;2022-08-21T14:57:55;4.67;;;1.47;;
12385;SDS011;6257;57.634;18.310;2022-08-21T15:00:24;5.77;;;1.53;;
12385;SDS011;6257;57.634;18.310;2022-08-21T15:02:51;5.87;;;1.60;;
12385;SDS011;6257;57.634;18.310;2022-08-21T15:05:18;3.10;;;1.20;;